^^
Station Historical Data
 
Daily Summary for February 22, 2018 Units:  English    Metric   Both
« Previous Day
Next Day »
Daily Weekly Monthly Yearly Custom
  Current: High: Low: Average:
Temperature: 31.5 °F TemperatureF °F 6.8 °F 19.5 °F
Dew Point: 19.5 °F DewpointF °F 5.2 °F 12 °F
Humidity: 61% Humidity% 48% 75%
Wind Speed: 3.5mph WindSpeedMPHmph 0.0mph 1.8mph
Wind Gust: 3.5mph WindSpeedGustMPHmph - -
WindEast - - ESE
Pressure: 30.45 in PressureIn in 30.45 in -
Precipitation: 0.03 in      
Historical Graphs
 
 
Tabular Data for February 22, 2018
Time Temperature Dew Point Pressure Wind Wind Speed Wind Gust Humidity Rainfall Rate (Hourly) solar Conditions
TemperatureF °F DewpointF °F PressureIn in Calm     Humidity% HourlyPrecipIn in SolarRadiationWatts/m^2 W/m2 Conditions
00:01 8.6 °F 7.7 °F 30.59 in Calm     96% 0.00 in 0.0 W/m2 CLR
00:06 8.6 °F 7.7 °F 30.58 in Calm     96% 0.00 in 0.0 W/m2 CLR
00:11 8.6 °F 7.7 °F 30.58 in Calm     96% 0.00 in 0.0 W/m2 CLR
00:16 8.6 °F 7.7 °F 30.58 in Calm     96% 0.00 in 0.0 W/m2 CLR
00:21 8.6 °F 7.7 °F 30.58 in Calm   0.2 mph 96% 0.00 in 0.0 W/m2 CLR
00:26 8.6 °F 8.2 °F 30.58 in West 2.3 mph 2.3 mph 98% 0.00 in 0.0 W/m2 CLR
00:31 8.6 °F 8.2 °F 30.58 in West 2.3 mph 2.3 mph 98% 0.00 in 0.0 W/m2 CLR
00:36 10.4 °F 9.5 °F 30.58 in WSW 2.3 mph   96% 0.00 in 0.0 W/m2 CLR
00:41 10.4 °F 9.5 °F 30.58 in WSW 2.3 mph 2.3 mph 96% 0.00 in 0.0 W/m2 CLR
00:46 10.4 °F 9.5 °F 30.59 in WSW 2.3 mph 2.3 mph 96% 0.00 in 0.0 W/m2 CLR
00:51 10.4 °F 9.5 °F 30.58 in WSW 2.3 mph 2.3 mph 96% 0.00 in 0.0 W/m2 CLR
00:56 10.4 °F 9.5 °F 30.58 in WSW 2.3 mph   96% 0.00 in 0.0 W/m2 CLR
01:01 10.4 °F 9.5 °F 30.58 in SW 2.3 mph   96% 0.00 in 0.0 W/m2 CLR
01:06 10.4 °F 9.3 °F 30.58 in Calm     95% 0.00 in 0.0 W/m2 CLR
01:11 10.4 °F 9.3 °F 30.58 in Calm     95% 0.00 in 0.0 W/m2 CLR
01:16 10.4 °F 9.3 °F 30.58 in Calm     95% 0.00 in 0.0 W/m2 CLR
01:21 10.4 °F 9.3 °F 30.58 in Calm     95% 0.00 in 0.0 W/m2 CLR
01:26 10.4 °F 8.8 °F 30.57 in Calm     93% 0.00 in 0.0 W/m2 CLR
01:31 10.4 °F 9.3 °F 30.57 in Calm     95% 0.00 in 0.0 W/m2 CLR
01:36 10.4 °F 9.3 °F 30.58 in WSW 1.2 mph   95% 0.00 in 0.0 W/m2 CLR
01:41 8.6 °F 7.0 °F 30.57 in West 1.2 mph   93% 0.00 in 0.0 W/m2 CLR
01:46 8.6 °F 7.0 °F 30.57 in Calm     93% 0.00 in 0.0 W/m2 CLR
01:51 8.6 °F 7.0 °F 30.57 in Calm     93% 0.00 in 0.0 W/m2 CLR
01:56 8.6 °F 7.0 °F 30.57 in Calm     93% 0.00 in 0.0 W/m2 CLR
02:01 8.6 °F 7.5 °F 30.57 in Calm     95% 0.00 in 0.0 W/m2 CLR
02:06 8.6 °F 7.5 °F 30.57 in Calm     95% 0.00 in 0.0 W/m2 CLR
02:11 8.6 °F 7.0 °F 30.56 in Calm     93% 0.00 in 0.0 W/m2 CLR
02:16 8.6 °F 7.0 °F 30.56 in Calm     93% 0.00 in 0.0 W/m2 CLR
02:21 8.6 °F 7.0 °F 30.56 in Calm     93% 0.00 in 0.0 W/m2 CLR
02:26 8.6 °F 7.0 °F 30.57 in Calm     93% 0.00 in 0.0 W/m2 CLR
02:31 8.6 °F 7.5 °F 30.57 in Calm     95% 0.00 in 0.0 W/m2 CLR
02:36 8.6 °F 6.5 °F 30.57 in Calm     91% 0.00 in 0.0 W/m2 CLR
02:41 8.6 °F 7.0 °F 30.56 in Calm     93% 0.00 in 0.0 W/m2 CLR
02:46 6.8 °F 5.2 °F 30.57 in Calm     93% 0.00 in 0.0 W/m2 CLR
02:51 6.8 °F 5.2 °F 30.57 in Calm     93% 0.00 in 0.0 W/m2 CLR
02:56 6.8 °F 5.7 °F 30.57 in Calm     95% 0.00 in 0.0 W/m2 CLR
03:01 8.6 °F 7.5 °F 30.57 in Calm     95% 0.00 in 0.0 W/m2 CLR
03:06 8.6 °F 7.7 °F 30.57 in Calm     96% 0.00 in 0.0 W/m2 CLR
03:11 8.6 °F 7.7 °F 30.56 in Calm     96% 0.00 in 0.0 W/m2 CLR
03:16 8.6 °F 7.7 °F 30.56 in Calm     96% 0.00 in 0.0 W/m2 CLR
03:21 8.6 °F 7.7 °F 30.56 in Calm     96% 0.00 in 0.0 W/m2 CLR
03:26 8.6 °F 7.7 °F 30.56 in Calm     96% 0.00 in 0.0 W/m2 CLR
03:31 8.6 °F 7.7 °F 30.56 in Calm     96% 0.00 in 0.0 W/m2 CLR
03:36 8.6 °F 7.7 °F 30.56 in Calm     96% 0.00 in 0.0 W/m2 CLR
03:41 8.6 °F 7.7 °F 30.56 in Calm     96% 0.00 in 0.0 W/m2 CLR
03:46 8.6 °F 7.7 °F 30.56 in Calm     96% 0.00 in 0.0 W/m2 CLR
03:52 8.6 °F 7.7 °F 30.56 in Calm     96% 0.00 in 0.0 W/m2 CLR
03:57 8.6 °F 7.7 °F 30.56 in Calm     96% 0.00 in 0.0 W/m2 CLR
04:02 8.6 °F 7.7 °F 30.56 in Calm     96% 0.00 in 0.0 W/m2 CLR
04:07 10.4 °F 9.5 °F 30.56 in Calm     96% 0.00 in 0.0 W/m2 CLR
04:12 10.4 °F 9.5 °F 30.56 in Calm     96% 0.00 in 0.0 W/m2 CLR
04:17 10.4 °F 9.5 °F 30.56 in Calm     96% 0.00 in 0.0 W/m2 CLR
04:22 10.4 °F 9.5 °F 30.57 in Calm     96% 0.00 in 0.0 W/m2 CLR
04:27 10.4 °F 9.5 °F 30.56 in Calm     96% 0.00 in 0.0 W/m2 CLR
04:32 10.4 °F 9.5 °F 30.56 in Calm     96% 0.00 in 0.0 W/m2 CLR
04:37 10.4 °F 9.5 °F 30.57 in Calm     96% 0.00 in 0.0 W/m2 CLR
04:42 10.4 °F 9.5 °F 30.56 in Calm     96% 0.00 in 0.0 W/m2 CLR
04:47 10.4 °F 9.5 °F 30.57 in Calm     96% 0.00 in 0.0 W/m2 CLR
04:52 10.4 °F 9.5 °F 30.57 in Calm     96% 0.00 in 0.0 W/m2 CLR
04:57 10.4 °F 9.5 °F 30.58 in Calm     96% 0.00 in 0.0 W/m2 CLR
05:02 10.4 °F 9.3 °F 30.58 in Calm     95% 0.00 in 0.0 W/m2 SCT
05:07 10.4 °F 8.8 °F 30.59 in Calm     93% 0.00 in 0.0 W/m2 SCT
05:12 10.4 °F 9.3 °F 30.59 in Calm     95% 0.00 in 0.0 W/m2 SCT
05:17 10.4 °F 8.8 °F 30.59 in Calm     93% 0.00 in 0.0 W/m2 SCT
05:22 12.2 °F 10.1 °F 30.59 in Calm     91% 0.00 in 0.0 W/m2 SCT
05:27 12.2 °F 9.8 °F 30.59 in Calm     90% 0.00 in 0.0 W/m2 SCT
05:32 12.2 °F 9.8 °F 30.59 in Calm     90% 0.00 in 0.0 W/m2 SCT
05:37 12.2 °F 9.8 °F 30.59 in Calm     90% 0.00 in 0.0 W/m2 SCT
05:42 12.2 °F 9.8 °F 30.59 in Calm     90% 0.00 in 0.0 W/m2 SCT
05:47 12.2 °F 9.8 °F 30.60 in Calm     90% 0.00 in 0.0 W/m2 SCT
05:52 12.2 °F 10.6 °F 30.61 in Calm     93% 0.00 in 0.0 W/m2 SCT
05:57 10.4 °F 8.3 °F 30.62 in Calm     91% 0.00 in 0.0 W/m2 SCT
06:02 10.4 °F 8.3 °F 30.62 in Calm     91% 0.00 in 0.0 W/m2 FEW
06:07 10.4 °F 8.3 °F 30.62 in Calm     91% 0.00 in 0.0 W/m2 FEW
06:12 10.4 °F 8.3 °F 30.62 in Calm     91% 0.00 in 0.0 W/m2 FEW
06:17 10.4 °F 8.3 °F 30.61 in Calm     91% 0.00 in 0.0 W/m2 FEW
06:22 10.4 °F 8.8 °F 30.62 in Calm     93% 0.00 in 0.0 W/m2 FEW
06:27 10.4 °F 8.8 °F 30.62 in Calm     93% 0.00 in 0.0 W/m2 FEW
06:32 10.4 °F 8.8 °F 30.62 in Calm     93% 0.00 in 0.0 W/m2 FEW
06:37 10.4 °F 8.8 °F 30.62 in Calm     93% 0.00 in 59.3 W/m2 FEW
06:42 10.4 °F 8.8 °F 30.62 in Calm     93% 0.00 in 78.5 W/m2 FEW
06:47 12.2 °F 10.6 °F 30.62 in Calm     93% 0.00 in 109.8 W/m2 FEW
06:52 12.2 °F 10.6 °F 30.63 in Calm     93% 0.00 in 136.0 W/m2 FEW
06:57 12.2 °F 10.6 °F 30.63 in Calm     93% 0.00 in 147.2 W/m2 FEW
07:02 12.2 °F 9.8 °F 30.63 in Calm     90% 0.00 in 157.3 W/m2 BKN
07:07 12.2 °F 10.6 °F 30.63 in Calm     93% 0.00 in 161.3 W/m2 BKN
07:12 12.2 °F 10.1 °F 30.63 in Calm     91% 0.00 in 177.4 W/m2 BKN
07:17 12.2 °F 10.6 °F 30.63 in Calm     93% 0.00 in 183.5 W/m2 BKN
07:22 12.2 °F 10.6 °F 30.63 in Calm     93% 0.00 in 204.7 W/m2 BKN
07:27 14.0 °F 11.6 °F 30.64 in Calm     90% 0.00 in 203.7 W/m2 BKN
07:32 14.0 °F 11.9 °F 30.63 in Calm     91% 0.00 in 205.7 W/m2 BKN
07:37 14.0 °F 10.3 °F 30.62 in NE 1.2 mph 1.2 mph 85% 0.00 in 204.7 W/m2 BKN
07:42 14.0 °F 10.6 °F 30.63 in East 1.2 mph   86% 0.00 in 209.8 W/m2 BKN
07:47 14.0 °F 11.1 °F 30.62 in East 1.2 mph   88% 0.00 in 196.6 W/m2 BKN
07:52 14.0 °F 11.1 °F 30.63 in ESE 1.2 mph   88% 0.00 in 217.8 W/m2 BKN
07:57 14.2 °F 10.8 °F 30.62 in ESE 1.2 mph   86% 0.00 in 217.8 W/m2 BKN
08:02 15.1 °F 10.8 °F 30.63 in Calm     83% 0.00 in 239.1 W/m2 OVC
08:07 15.8 °F 11.6 °F 30.62 in Calm     83% 0.00 in 254.2 W/m2 OVC
08:12 16.3 °F 10.7 °F 30.62 in Calm     78% 0.00 in 254.2 W/m2 OVC
08:17 16.7 °F 11.0 °F 30.62 in Calm     78% 0.00 in 254.2 W/m2 OVC
08:22 16.7 °F 11.3 °F 30.63 in ENE 1.2 mph 1.2 mph 79% 0.00 in 238.1 W/m2 OVC
08:27 17.1 °F 11.4 °F 30.62 in North 1.2 mph   78% 0.00 in 257.2 W/m2 OVC
08:32 17.8 °F 11.5 °F 30.63 in WNW 1.2 mph 1.2 mph 76% 0.00 in 261.3 W/m2 OVC
08:37 17.8 °F 10.9 °F 30.62 in NNE 1.2 mph   74% 0.00 in 260.3 W/m2 OVC
08:42 17.8 °F 10.9 °F 30.62 in ENE 1.2 mph 1.2 mph 74% 0.00 in 266.3 W/m2 OVC
08:47 19.2 °F 11.4 °F 30.62 in ENE 2.3 mph 2.3 mph 71% 0.00 in 266.3 W/m2 OVC
08:52 19.8 °F 11.2 °F 30.62 in NE 2.3 mph 2.3 mph 69% 0.00 in 275.4 W/m2 OVC
08:57 20.5 °F 11.6 °F 30.62 in ENE 2.3 mph 2.3 mph 68% 0.00 in 566.3 W/m2 OVC
09:02 20.8 °F 10.9 °F 30.61 in East 3.5 mph 3.5 mph 65% 0.00 in 737.0 W/m2 OVC
09:07 20.7 °F 11.1 °F 30.62 in ENE 3.5 mph 3.5 mph 66% 0.00 in 566.3 W/m2 OVC
09:12 21.6 °F 11.6 °F 30.62 in East 2.3 mph 2.3 mph 65% 0.00 in 635.0 W/m2 OVC
09:17 24.4 °F 12.5 °F 30.62 in East 2.3 mph 2.3 mph 60% 0.00 in 788.5 W/m2 OVC
09:22 25.2 °F 12.8 °F 30.60 in ENE 1.2 mph 1.2 mph 59% 0.00 in 843.0 W/m2 OVC
09:27 25.2 °F 11.6 °F 30.61 in NE 1.2 mph   56% 0.00 in 790.5 W/m2 OVC
09:32 24.8 °F 11.3 °F 30.61 in NE 1.2 mph   56% 0.00 in 762.2 W/m2 OVC
09:37 24.4 °F 12.1 °F 30.60 in East 3.5 mph 3.5 mph 59% 0.00 in 372.4 W/m2 OVC
09:42 24.8 °F 12.1 °F 30.60 in NE 3.5 mph 3.5 mph 58% 0.00 in 395.6 W/m2 OVC
09:47 25.3 °F 11.8 °F 30.60 in North 2.3 mph 2.3 mph 56% 0.00 in 395.6 W/m2 OVC
09:52 24.8 °F 12.5 °F 30.60 in ENE 3.5 mph 3.5 mph 59% 0.00 in 581.4 W/m2 OVC
09:57 25.2 °F 12.4 °F 30.60 in East 3.5 mph   58% 0.00 in 505.7 W/m2 OVC
10:02 25.9 °F 11.9 °F 30.60 in SSE 3.5 mph 3.5 mph 55% 0.00 in 505.7 W/m2 OVC
10:07 25.9 °F 13.1 °F 30.59 in SE 2.3 mph   58% 0.00 in 466.3 W/m2 OVC
10:12 26.2 °F 12.2 °F 30.59 in ESE 2.3 mph   55% 0.00 in 555.2 W/m2 OVC
10:17 25.9 °F 12.3 °F 30.60 in ENE 2.3 mph 2.3 mph 56% 0.00 in 367.3 W/m2 OVC
10:22 25.9 °F 11.9 °F 30.60 in ENE 2.3 mph   55% 0.00 in 339.1 W/m2 OVC
10:27 26.6 °F 12.2 °F 30.60 in East 3.5 mph 3.5 mph 54% 0.00 in 461.3 W/m2 OVC
10:32 27.0 °F 12.1 °F 30.59 in SE 4.6 mph 4.6 mph 53% 0.00 in 863.2 W/m2 OVC
10:37 26.6 °F 12.2 °F 30.59 in SSE 4.6 mph 4.6 mph 54% 0.00 in 873.3 W/m2 OVC
10:42 27.9 °F 12.9 °F 30.59 in ESE 3.5 mph 3.5 mph 53% 0.00 in 889.5 W/m2 OVC
10:47 28.2 °F 13.3 °F 30.58 in ESE 3.5 mph 3.5 mph 53% 0.00 in 889.5 W/m2 OVC
10:52 28.8 °F 13.8 °F 30.57 in East 2.3 mph 2.3 mph 53% 0.00 in 888.5 W/m2 OVC
10:57 27.9 °F 13.8 °F 30.57 in NE 2.3 mph 2.3 mph 55% 0.00 in 877.4 W/m2 OVC
11:02 28.2 °F 13.7 °F 30.57 in NNE 3.5 mph 3.5 mph 54% 0.00 in 879.4 W/m2 FEW
11:07 28.6 °F 14.0 °F 30.57 in NNE 3.5 mph 3.5 mph 54% 0.00 in 853.1 W/m2 FEW
11:12 28.2 °F 14.1 °F 30.57 in NNE 4.6 mph 4.6 mph 55% 0.00 in 871.3 W/m2 FEW
11:17 29.1 °F 14.5 °F 30.56 in NE 4.6 mph 4.6 mph 54% 0.00 in 879.4 W/m2 FEW
11:22 28.2 °F 14.1 °F 30.57 in East 4.6 mph 4.6 mph 55% 0.00 in 891.5 W/m2 FEW
11:27 28.8 °F 14.6 °F 30.57 in ESE 4.6 mph 4.6 mph 55% 0.00 in 887.5 W/m2 FEW
11:32 28.8 °F 14.2 °F 30.56 in ESE 3.5 mph 3.5 mph 54% 0.00 in 876.4 W/m2 FEW
11:37 30.0 °F 14.9 °F 30.57 in ENE 3.5 mph 3.5 mph 53% 0.00 in 869.3 W/m2 FEW
11:42 29.7 °F 15.0 °F 30.57 in NNE 3.5 mph 3.5 mph 54% 0.00 in 869.3 W/m2 FEW
11:47 30.6 °F 14.6 °F 30.57 in NNE 2.3 mph   51% 0.00 in 875.4 W/m2 FEW
11:52 30.6 °F 14.6 °F 30.57 in North 2.3 mph 2.3 mph 51% 0.00 in 868.3 W/m2 FEW
11:57 29.7 °F 15.0 °F 30.57 in North 3.5 mph 3.5 mph 54% 0.00 in 874.3 W/m2 FEW
12:02 30.0 °F 15.4 °F 30.56 in SE 3.5 mph 3.5 mph 54% 0.00 in 862.2 W/m2 SCT
12:07 29.5 °F 14.9 °F 30.56 in SSW 3.5 mph 3.5 mph 54% 0.00 in 862.2 W/m2 SCT
12:12 30.7 °F 15.6 °F 30.54 in South 3.5 mph 3.5 mph 53% 0.00 in 856.2 W/m2 SCT
12:17 30.6 °F 14.1 °F 30.55 in ESE 3.5 mph 3.5 mph 50% 0.00 in 868.3 W/m2 SCT
12:22 30.0 °F 14.1 °F 30.54 in East 4.6 mph 4.6 mph 51% 0.00 in 856.2 W/m2 SCT
12:27 30.4 °F 13.9 °F 30.54 in SE 4.6 mph 4.6 mph 50% 0.00 in 863.2 W/m2 SCT
12:32 31.1 °F 14.6 °F 30.54 in SE 4.6 mph 4.6 mph 50% 0.00 in 848.1 W/m2 SCT
12:37 29.8 °F 13.9 °F 30.53 in ESE 3.5 mph 3.5 mph 51% 0.00 in 830.9 W/m2 SCT
12:42 30.4 °F 13.9 °F 30.53 in ESE 3.5 mph 3.5 mph 50% 0.00 in 854.2 W/m2 SCT
12:47 31.1 °F 14.6 °F 30.53 in SE 3.5 mph 3.5 mph 50% 0.00 in 890.5 W/m2 SCT
12:52 31.6 °F 14.6 °F 30.52 in SE 3.5 mph 3.5 mph 49% 0.00 in 892.5 W/m2 SCT
12:57 32.2 °F 15.1 °F 30.52 in East 3.5 mph 3.5 mph 49% 0.00 in 892.5 W/m2 SCT
13:02 31.8 °F 14.8 °F 30.51 in SE 3.5 mph 3.5 mph 49% 0.00 in 894.6 W/m2 OVC
13:07 32.5 °F 15.5 °F 30.51 in ESE 3.5 mph 3.5 mph 49% 0.00 in 886.5 W/m2 OVC
13:12 33.4 °F 16.8 °F 30.51 in ENE 2.3 mph 2.3 mph 50% 0.00 in 885.5 W/m2 OVC
13:17 34.0 °F 16.8 °F 30.50 in NE 3.5 mph 3.5 mph 49% 0.00 in 886.5 W/m2 OVC
13:22 33.1 °F 16.0 °F 30.50 in ENE 3.5 mph 3.5 mph 49% 0.00 in 888.5 W/m2 OVC
13:27 33.4 °F 15.8 °F 30.50 in ESE 3.5 mph 3.5 mph 48% 0.00 in 892.5 W/m2 OVC
13:32 32.5 °F 15.5 °F 30.50 in ESE 3.5 mph 3.5 mph 49% 0.00 in 799.6 W/m2 OVC
13:37 33.4 °F 16.8 °F 30.50 in ESE 3.5 mph 3.5 mph 50% 0.00 in 785.5 W/m2 OVC
13:42 31.8 °F 16.6 °F 30.50 in SSE 3.5 mph 3.5 mph 53% 0.00 in 829.9 W/m2 OVC
13:47 32.5 °F 15.9 °F 30.50 in SSE 3.5 mph 3.5 mph 50% 0.01 in 837.0 W/m2 RA
13:52 33.4 °F 16.8 °F 30.50 in South 2.3 mph   50% 0.01 in 828.9 W/m2 RA
13:57 33.3 °F 16.6 °F 30.50 in SE 1.2 mph   50% 0.01 in 794.6 W/m2 OVC
14:02 32.5 °F 18.1 °F 30.49 in East 1.2 mph   55% 0.01 in 794.6 W/m2 BKN
14:07 32.5 °F 17.3 °F 30.49 in East 3.5 mph 3.5 mph 53% 0.02 in 513.8 W/m2 RA
14:12 31.8 °F 17.0 °F 30.49 in East 3.5 mph 3.5 mph 54% 0.02 in 452.0 W/m2 RA
14:17 32.2 °F 16.9 °F 30.49 in ENE 3.5 mph 3.5 mph 53% 0.02 in 382.5 W/m2 BKN
14:22 32.5 °F 17.3 °F 30.49 in East 3.5 mph 3.5 mph 53% 0.02 in 374.4 W/m2 BKN
14:27 32.5 °F 17.3 °F 30.48 in ESE 3.5 mph 3.5 mph 53% 0.02 in 365.3 W/m2 BKN
14:32 32.5 °F 17.7 °F 30.48 in East 3.5 mph   54% 0.02 in 348.1 W/m2 BKN
14:37 31.8 °F 17.0 °F 30.48 in East 3.5 mph 3.5 mph 54% 0.02 in 348.1 W/m2 BKN
14:42 31.6 °F 17.3 °F 30.47 in East 4.6 mph 4.6 mph 55% 0.02 in 337.0 W/m2 BKN
14:47 31.6 °F 17.3 °F 30.47 in East 4.6 mph 4.6 mph 55% 0.02 in 316.8 W/m2 RA
14:52 31.6 °F 18.5 °F 30.47 in ESE 4.6 mph 4.6 mph 58% 0.02 in 308.8 W/m2 RA
14:57 32.4 °F 19.2 °F 30.47 in ESE 4.6 mph 4.6 mph 58% 0.02 in 343.1 W/m2 BKN
15:03 32.5 °F 19.4 °F 30.46 in ESE 4.6 mph 4.6 mph 58% 0.02 in 379.4 W/m2 OVC
15:08 32.4 °F 20.4 °F 30.46 in ESE 3.5 mph 3.5 mph 61% 0.01 in 350.2 W/m2 OVC
15:13 32.5 °F 20.6 °F 30.46 in ESE 3.5 mph 3.5 mph 61% 0.01 in 316.0 W/m2 OVC
15:18 32.2 °F 20.2 °F 30.46 in ENE 4.6 mph 4.6 mph 61% 0.01 in 303.0 W/m2 OVC
15:23 32.4 °F 21.2 °F 30.47 in NNW 4.6 mph 4.6 mph 63% 0.01 in 290.0 W/m2 OVC
15:28 32.5 °F 20.6 °F 30.46 in SW 4.6 mph 4.6 mph 61% 0.01 in 277.0 W/m2 OVC
15:33 33.1 °F 21.1 °F 30.47 in ESE 4.6 mph 4.6 mph 61% 0.01 in 264.0 W/m2 OVC
15:38 33.3 °F 21.3 °F 30.45 in East 5.8 mph 5.8 mph 61% 0.01 in 251.0 W/m2 OVC
15:43 33.3 °F 21.3 °F 30.46 in ENE 5.8 mph 5.8 mph 61% 0.01 in 238.0 W/m2 OVC
15:48 32.2 °F 21.0 °F 30.46 in ENE 4.6 mph 4.6 mph 63% 0.00 in 224.0 W/m2 OVC
15:53 32.2 °F 21.0 °F 30.45 in ESE 4.6 mph 4.6 mph 63% 0.00 in 211.0 W/m2 OVC
15:58 31.6 °F 20.5 °F 30.46 in ESE 5.8 mph 5.8 mph 63% 0.00 in 295.6 W/m2 OVC
16:03 32.5 °F 20.6 °F 30.45 in ESE 5.8 mph 5.8 mph 61% 0.00 in 184.0 W/m2 BKN
16:08 32.2 °F 21.0 °F 30.45 in East 4.6 mph 4.6 mph 63% 0.00 in 171.0 W/m2 BKN
16:13 31.6 °F 20.5 °F 30.45 in East 5.8 mph 5.8 mph 63% 0.00 in 265.3 W/m2 BKN
16:18 31.6 °F 20.5 °F 30.47 in East 5.8 mph 5.8 mph 63% 0.00 in 259.3 W/m2 BKN
16:23 31.6 °F 19.7 °F 30.47 in East 3.5 mph 3.5 mph 61% 0.00 in 131.0 W/m2 BKN
16:28 31.5 °F 19.5 °F 30.45 in East 3.5 mph 3.5 mph 61% 0.00 in 118.0 W/m2 BKN
Juneau County Weather
Compliments of Weather Underground - 5.5 mb